sensor_id;sensor_type;location;lat;lon;timestamp;pressure;altitude;pressure_sealevel;temperature;humidity
69622;BME280;56841;55.964;37.674;2022-07-29T00:00:06;99558.06;;;15.85;100.00
69622;BME280;56841;55.964;37.674;2022-07-29T00:02:33;99556.63;;;15.76;100.00
69622;BME280;56841;55.964;37.674;2022-07-29T00:04:59;99565.34;;;15.57;100.00
69622;BME280;56841;55.964;37.674;2022-07-29T00:07:24;99574.38;;;15.56;100.00
69622;BME280;56841;55.964;37.674;2022-07-29T00:09:50;99567.59;;;15.47;100.00
69622;BME280;56841;55.964;37.674;2022-07-29T00:12:16;99563.91;;;15.48;100.00
69622;BME280;56841;55.964;37.674;2022-07-29T00:14:42;99560.41;;;15.40;100.00
69622;BME280;56841;55.964;37.674;2022-07-29T00:17:08;99557.72;;;15.34;100.00
69622;BME280;56841;55.964;37.674;2022-07-29T00:19:33;99564.47;;;15.30;100.00
69622;BME280;56841;55.964;37.674;2022-07-29T00:22:00;99563.00;;;15.27;100.00
69622;BME280;56841;55.964;37.674;2022-07-29T00:24:26;99563.81;;;15.21;100.00
69622;BME280;56841;55.964;37.674;2022-07-29T00:26:52;99564.81;;;15.20;100.00
69622;BME280;56841;55.964;37.674;2022-07-29T00:29:18;99567.03;;;15.10;100.00
69622;BME280;56841;55.964;37.674;2022-07-29T00:31:44;99567.66;;;15.12;100.00
69622;BME280;56841;55.964;37.674;2022-07-29T00:34:10;99569.25;;;15.00;100.00
69622;BME280;56841;55.964;37.674;2022-07-29T00:36:56;99578.66;;;15.02;100.00
69622;BME280;56841;55.964;37.674;2022-07-29T00:39:22;99578.22;;;14.92;100.00
69622;BME280;56841;55.964;37.674;2022-07-29T00:41:48;99574.31;;;14.88;100.00
69622;BME280;56841;55.964;37.674;2022-07-29T00:44:14;99580.63;;;14.87;100.00
69622;BME280;56841;55.964;37.674;2022-07-29T00:46:40;99572.63;;;14.87;100.00
69622;BME280;56841;55.964;37.674;2022-07-29T00:49:05;99573.88;;;14.84;100.00
69622;BME280;56841;55.964;37.674;2022-07-29T00:51:35;99578.56;;;14.82;100.00
69622;BME280;56841;55.964;37.674;2022-07-29T00:54:02;99578.78;;;14.81;100.00
69622;BME280;56841;55.964;37.674;2022-07-29T00:56:30;99576.88;;;14.75;100.00
69622;BME280;56841;55.964;37.674;2022-07-29T00:58:57;99583.41;;;14.72;100.00
69622;BME280;56841;55.964;37.674;2022-07-29T01:01:23;99579.50;;;14.68;100.00
69622;BME280;56841;55.964;37.674;2022-07-29T01:03:49;99585.59;;;14.62;100.00
69622;BME280;56841;55.964;37.674;2022-07-29T01:06:16;99583.53;;;14.57;100.00
69622;BME280;56841;55.964;37.674;2022-07-29T01:08:44;99587.38;;;14.55;100.00
69622;BME280;56841;55.964;37.674;2022-07-29T01:11:11;99596.56;;;14.52;100.00
69622;BME280;56841;55.964;37.674;2022-07-29T01:13:37;99603.06;;;14.50;100.00
69622;BME280;56841;55.964;37.674;2022-07-29T01:16:34;99604.88;;;14.49;100.00
69622;BME280;56841;55.964;37.674;2022-07-29T01:19:37;99605.84;;;14.41;100.00
69622;BME280;56841;55.964;37.674;2022-07-29T01:21:59;99599.94;;;14.46;100.00
69622;BME280;56841;55.964;37.674;2022-07-29T01:24:42;99609.56;;;14.47;100.00
69622;BME280;56841;55.964;37.674;2022-07-29T01:30:15;99602.00;;;14.44;100.00
69622;BME280;56841;55.964;37.674;2022-07-29T01:32:42;99605.47;;;14.44;100.00
69622;BME280;56841;55.964;37.674;2022-07-29T01:35:23;99608.88;;;14.38;100.00
69622;BME280;56841;55.964;37.674;2022-07-29T01:41:22;99601.50;;;14.34;100.00
69622;BME280;56841;55.964;37.674;2022-07-29T01:43:28;99600.25;;;14.30;100.00
69622;BME280;56841;55.964;37.674;2022-07-29T01:46:00;99606.75;;;14.27;100.00
69622;BME280;56841;55.964;37.674;2022-07-29T01:48:40;99593.47;;;14.27;100.00
69622;BME280;56841;55.964;37.674;2022-07-29T01:51:13;99599.59;;;14.28;100.00
69622;BME280;56841;55.964;37.674;2022-07-29T01:54:12;99601.66;;;14.26;100.00
69622;BME280;56841;55.964;37.674;2022-07-29T01:56:42;99603.91;;;14.29;100.00
69622;BME280;56841;55.964;37.674;2022-07-29T01:59:09;99596.94;;;14.28;100.00
69622;BME280;56841;55.964;37.674;2022-07-29T02:01:37;99604.31;;;14.26;100.00
69622;BME280;56841;55.964;37.674;2022-07-29T02:04:07;99601.19;;;14.22;100.00
69622;BME280;56841;55.964;37.674;2022-07-29T02:06:37;99610.75;;;14.16;100.00
69622;BME280;56841;55.964;37.674;2022-07-29T02:09:04;99604.03;;;14.20;100.00
69622;BME280;56841;55.964;37.674;2022-07-29T02:11:33;99608.53;;;14.20;100.00
69622;BME280;56841;55.964;37.674;2022-07-29T02:14:00;99609.13;;;14.15;100.00
69622;BME280;56841;55.964;37.674;2022-07-29T02:16:30;99612.41;;;14.17;100.00
69622;BME280;56841;55.964;37.674;2022-07-29T02:18:57;99608.28;;;14.15;100.00
69622;BME280;56841;55.964;37.674;2022-07-29T02:21:26;99610.06;;;14.08;100.00
69622;BME280;56841;55.964;37.674;2022-07-29T02:23:54;99604.56;;;14.09;100.00
69622;BME280;56841;55.964;37.674;2022-07-29T02:26:23;99612.16;;;14.12;100.00
69622;BME280;56841;55.964;37.674;2022-07-29T02:28:52;99611.13;;;14.13;100.00
69622;BME280;56841;55.964;37.674;2022-07-29T02:31:22;99611.63;;;14.23;100.00
69622;BME280;56841;55.964;37.674;2022-07-29T02:33:50;99615.53;;;14.28;100.00
69622;BME280;56841;55.964;37.674;2022-07-29T02:36:17;99620.47;;;14.31;100.00
69622;BME280;56841;55.964;37.674;2022-07-29T02:38:46;99615.81;;;14.33;100.00
69622;BME280;56841;55.964;37.674;2022-07-29T02:41:24;99609.66;;;14.32;100.00
69622;BME280;56841;55.964;37.674;2022-07-29T02:44:03;99604.38;;;14.39;100.00
69622;BME280;56841;55.964;37.674;2022-07-29T02:46:37;99623.19;;;14.37;100.00
69622;BME280;56841;55.964;37.674;2022-07-29T02:49:13;99617.19;;;14.50;100.00
69622;BME280;56841;55.964;37.674;2022-07-29T02:51:49;99613.78;;;14.63;100.00
69622;BME280;56841;55.964;37.674;2022-07-29T02:54:27;99615.91;;;14.67;100.00
69622;BME280;56841;55.964;37.674;2022-07-29T02:56:59;99618.38;;;14.76;100.00
69622;BME280;56841;55.964;37.674;2022-07-29T02:59:27;99610.72;;;14.87;100.00
69622;BME280;56841;55.964;37.674;2022-07-29T03:01:57;99617.44;;;14.90;100.00
69622;BME280;56841;55.964;37.674;2022-07-29T03:04:24;99615.03;;;14.95;100.00
69622;BME280;56841;55.964;37.674;2022-07-29T03:06:52;99606.25;;;14.95;100.00
69622;BME280;56841;55.964;37.674;2022-07-29T03:09:18;99611.56;;;14.95;100.00
69622;BME280;56841;55.964;37.674;2022-07-29T03:11:45;99614.88;;;15.03;100.00
69622;BME280;56841;55.964;37.674;2022-07-29T03:14:11;99624.72;;;15.09;100.00
69622;BME280;56841;55.964;37.674;2022-07-29T03:16:37;99615.56;;;15.19;100.00
69622;BME280;56841;55.964;37.674;2022-07-29T03:19:04;99613.91;;;15.17;100.00
69622;BME280;56841;55.964;37.674;2022-07-29T03:21:31;99611.50;;;15.23;100.00
69622;BME280;56841;55.964;37.674;2022-07-29T03:23:56;99612.50;;;15.15;100.00
69622;BME280;56841;55.964;37.674;2022-07-29T03:26:22;99610.47;;;15.24;100.00
69622;BME280;56841;55.964;37.674;2022-07-29T03:28:48;99605.16;;;15.24;100.00
69622;BME280;56841;55.964;37.674;2022-07-29T03:31:14;99608.06;;;15.35;100.00
69622;BME280;56841;55.964;37.674;2022-07-29T03:33:40;99611.75;;;15.41;100.00
69622;BME280;56841;55.964;37.674;2022-07-29T03:36:05;99627.91;;;15.33;100.00
69622;BME280;56841;55.964;37.674;2022-07-29T03:38:33;99617.09;;;15.41;100.00
69622;BME280;56841;55.964;37.674;2022-07-29T03:41:06;99616.09;;;15.55;100.00
69622;BME280;56841;55.964;37.674;2022-07-29T03:43:37;99613.66;;;15.54;100.00
69622;BME280;56841;55.964;37.674;2022-07-29T03:46:09;99618.19;;;15.60;100.00
69622;BME280;56841;55.964;37.674;2022-07-29T03:48:37;99619.47;;;15.71;100.00
69622;BME280;56841;55.964;37.674;2022-07-29T03:51:05;99617.88;;;15.76;100.00
69622;BME280;56841;55.964;37.674;2022-07-29T03:53:32;99617.22;;;15.74;100.00
69622;BME280;56841;55.964;37.674;2022-07-29T03:55:59;99622.97;;;15.78;100.00
69622;BME280;56841;55.964;37.674;2022-07-29T03:58:27;99618.31;;;15.93;100.00
69622;BME280;56841;55.964;37.674;2022-07-29T04:00:56;99617.47;;;15.99;100.00
69622;BME280;56841;55.964;37.674;2022-07-29T04:03:22;99625.06;;;16.02;100.00
69622;BME280;56841;55.964;37.674;2022-07-29T04:06:03;99620.97;;;16.13;100.00
69622;BME280;56841;55.964;37.674;2022-07-29T04:08:32;99623.66;;;16.33;100.00
69622;BME280;56841;55.964;37.674;2022-07-29T04:10:59;99622.03;;;16.39;100.00
69622;BME280;56841;55.964;37.674;2022-07-29T04:13:25;99625.28;;;16.47;100.00
69622;BME280;56841;55.964;37.674;2022-07-29T04:15:51;99622.03;;;16.52;100.00
69622;BME280;56841;55.964;37.674;2022-07-29T04:18:17;99616.69;;;16.58;100.00
69622;BME280;56841;55.964;37.674;2022-07-29T04:20:43;99620.97;;;16.73;100.00
69622;BME280;56841;55.964;37.674;2022-07-29T04:23:09;99627.56;;;16.84;100.00
69622;BME280;56841;55.964;37.674;2022-07-29T04:25:39;99634.53;;;16.85;99.82
69622;BME280;56841;55.964;37.674;2022-07-29T04:28:05;99633.91;;;16.96;98.91
69622;BME280;56841;55.964;37.674;2022-07-29T04:30:32;99627.31;;;16.98;96.16
69622;BME280;56841;55.964;37.674;2022-07-29T04:33:03;99637.78;;;17.00;96.24
69622;BME280;56841;55.964;37.674;2022-07-29T04:35:31;99631.00;;;16.97;94.85
69622;BME280;56841;55.964;37.674;2022-07-29T04:37:59;99629.19;;;16.85;93.97
69622;BME280;56841;55.964;37.674;2022-07-29T04:40:25;99625.66;;;17.04;93.95
69622;BME280;56841;55.964;37.674;2022-07-29T04:42:51;99634.06;;;17.08;94.74
69622;BME280;56841;55.964;37.674;2022-07-29T04:45:16;99635.28;;;17.12;93.82
69622;BME280;56841;55.964;37.674;2022-07-29T04:47:42;99634.47;;;17.11;94.69
69622;BME280;56841;55.964;37.674;2022-07-29T04:50:09;99644.03;;;17.32;94.11
69622;BME280;56841;55.964;37.674;2022-07-29T04:52:35;99653.25;;;17.43;93.30
69622;BME280;56841;55.964;37.674;2022-07-29T04:55:03;99653.84;;;17.51;93.29
69622;BME280;56841;55.964;37.674;2022-07-29T04:57:30;99650.41;;;17.38;92.87
69622;BME280;56841;55.964;37.674;2022-07-29T04:59:55;99648.16;;;17.35;93.22
69622;BME280;56841;55.964;37.674;2022-07-29T05:02:21;99652.66;;;17.34;93.83
69622;BME280;56841;55.964;37.674;2022-07-29T05:04:47;99650.16;;;17.46;92.70
69622;BME280;56841;55.964;37.674;2022-07-29T05:07:13;99646.03;;;17.43;91.99
69622;BME280;56841;55.964;37.674;2022-07-29T05:09:40;99642.63;;;17.23;92.22
69622;BME280;56841;55.964;37.674;2022-07-29T05:12:06;99639.09;;;17.36;92.87
69622;BME280;56841;55.964;37.674;2022-07-29T05:14:32;99641.28;;;17.59;91.25
69622;BME280;56841;55.964;37.674;2022-07-29T05:16:58;99641.41;;;17.70;91.99
69622;BME280;56841;55.964;37.674;2022-07-29T05:19:24;99651.31;;;17.63;89.50
69622;BME280;56841;55.964;37.674;2022-07-29T05:21:50;99645.00;;;17.51;90.99
69622;BME280;56841;55.964;37.674;2022-07-29T05:24:16;99641.94;;;17.47;89.38
69622;BME280;56841;55.964;37.674;2022-07-29T05:26:42;99648.28;;;17.53;89.67
69622;BME280;56841;55.964;37.674;2022-07-29T05:29:08;99646.78;;;17.64;89.23
69622;BME280;56841;55.964;37.674;2022-07-29T05:31:33;99644.13;;;17.57;89.02
69622;BME280;56841;55.964;37.674;2022-07-29T05:33:59;99644.09;;;17.64;89.53
69622;BME280;56841;55.964;37.674;2022-07-29T05:36:25;99647.56;;;17.77;88.43
69622;BME280;56841;55.964;37.674;2022-07-29T05:38:51;99642.22;;;17.77;87.37
69622;BME280;56841;55.964;37.674;2022-07-29T05:41:18;99645.75;;;17.78;86.65
69622;BME280;56841;55.964;37.674;2022-07-29T05:43:44;99644.25;;;17.89;87.46
69622;BME280;56841;55.964;37.674;2022-07-29T05:46:10;99643.66;;;18.12;87.15
69622;BME280;56841;55.964;37.674;2022-07-29T05:48:35;99644.34;;;18.32;87.29
69622;BME280;56841;55.964;37.674;2022-07-29T05:51:01;99646.47;;;18.48;86.54
69622;BME280;56841;55.964;37.674;2022-07-29T05:53:27;99649.66;;;18.64;81.46
69622;BME280;56841;55.964;37.674;2022-07-29T05:55:53;99641.56;;;18.70;82.43
69622;BME280;56841;55.964;37.674;2022-07-29T05:58:20;99648.59;;;18.72;81.52
69622;BME280;56841;55.964;37.674;2022-07-29T06:00:46;99645.69;;;18.66;80.36
69622;BME280;56841;55.964;37.674;2022-07-29T06:03:12;99654.53;;;18.42;78.79
69622;BME280;56841;55.964;37.674;2022-07-29T06:05:38;99666.34;;;18.34;78.56
69622;BME280;56841;55.964;37.674;2022-07-29T06:08:04;99645.38;;;18.31;79.29
69622;BME280;56841;55.964;37.674;2022-07-29T06:10:35;99645.06;;;18.46;80.58
69622;BME280;56841;55.964;37.674;2022-07-29T06:13:00;99643.47;;;18.38;78.83
69622;BME280;56841;55.964;37.674;2022-07-29T06:15:26;99644.50;;;18.62;80.21
69622;BME280;56841;55.964;37.674;2022-07-29T06:17:52;99643.44;;;18.70;79.05
69622;BME280;56841;55.964;37.674;2022-07-29T06:20:18;99641.03;;;18.62;77.73
69622;BME280;56841;55.964;37.674;2022-07-29T06:22:44;99644.38;;;18.57;77.62
69622;BME280;56841;55.964;37.674;2022-07-29T06:25:10;99653.41;;;18.56;77.16
69622;BME280;56841;55.964;37.674;2022-07-29T06:27:37;99637.97;;;18.83;77.90
69622;BME280;56841;55.964;37.674;2022-07-29T06:30:03;99647.34;;;18.74;78.06
69622;BME280;56841;55.964;37.674;2022-07-29T06:32:32;99638.97;;;18.64;76.66
69622;BME280;56841;55.964;37.674;2022-07-29T06:34:58;99638.19;;;18.82;77.97
69622;BME280;56841;55.964;37.674;2022-07-29T06:37:24;99642.91;;;19.05;77.39
69622;BME280;56841;55.964;37.674;2022-07-29T06:39:49;99636.81;;;19.16;75.09
69622;BME280;56841;55.964;37.674;2022-07-29T06:42:36;99642.59;;;19.31;74.27
69622;BME280;56841;55.964;37.674;2022-07-29T06:45:02;99638.88;;;19.51;75.51
69622;BME280;56841;55.964;37.674;2022-07-29T06:47:29;99636.06;;;19.64;76.12
69622;BME280;56841;55.964;37.674;2022-07-29T06:49:54;99632.69;;;19.69;74.28
69622;BME280;56841;55.964;37.674;2022-07-29T06:52:20;99635.16;;;19.33;73.71
69622;BME280;56841;55.964;37.674;2022-07-29T06:54:46;99638.38;;;19.42;70.90
69622;BME280;56841;55.964;37.674;2022-07-29T06:57:14;99638.72;;;19.64;69.94
69622;BME280;56841;55.964;37.674;2022-07-29T06:59:39;99636.56;;;19.54;70.14
69622;BME280;56841;55.964;37.674;2022-07-29T07:02:05;99636.88;;;19.46;68.10
69622;BME280;56841;55.964;37.674;2022-07-29T07:04:31;99638.06;;;19.50;71.04
69622;BME280;56841;55.964;37.674;2022-07-29T07:06:57;99638.41;;;19.72;70.41
69622;BME280;56841;55.964;37.674;2022-07-29T07:09:24;99641.44;;;19.76;71.64
69622;BME280;56841;55.964;37.674;2022-07-29T07:11:50;99639.41;;;19.59;67.98
69622;BME280;56841;55.964;37.674;2022-07-29T07:14:15;99640.50;;;19.70;67.83
69622;BME280;56841;55.964;37.674;2022-07-29T07:16:41;99639.09;;;19.98;68.54
69622;BME280;56841;55.964;37.674;2022-07-29T07:19:08;99635.31;;;20.17;66.54
69622;BME280;56841;55.964;37.674;2022-07-29T07:21:33;99636.13;;;20.18;65.51
69622;BME280;56841;55.964;37.674;2022-07-29T07:23:59;99645.59;;;20.32;65.54
69622;BME280;56841;55.964;37.674;2022-07-29T07:26:26;99642.69;;;20.45;63.82
69622;BME280;56841;55.964;37.674;2022-07-29T07:28:52;99654.09;;;20.29;62.38
69622;BME280;56841;55.964;37.674;2022-07-29T07:31:19;99644.16;;;20.18;61.70
69622;BME280;56841;55.964;37.674;2022-07-29T07:33:45;99636.06;;;20.48;63.99
69622;BME280;56841;55.964;37.674;2022-07-29T07:36:11;99643.19;;;20.54;64.38
69622;BME280;56841;55.964;37.674;2022-07-29T07:38:37;99636.63;;;20.38;63.69
69622;BME280;56841;55.964;37.674;2022-07-29T07:41:03;99644.19;;;20.29;64.87
69622;BME280;56841;55.964;37.674;2022-07-29T07:43:29;99649.53;;;20.29;65.26
69622;BME280;56841;55.964;37.674;2022-07-29T07:45:54;99645.09;;;20.23;63.59
69622;BME280;56841;55.964;37.674;2022-07-29T07:48:20;99644.22;;;20.41;61.15
69622;BME280;56841;55.964;37.674;2022-07-29T07:50:46;99650.78;;;20.57;61.38
69622;BME280;56841;55.964;37.674;2022-07-29T07:53:12;99649.16;;;20.79;61.98
69622;BME280;56841;55.964;37.674;2022-07-29T07:55:42;99644.16;;;20.83;61.34
69622;BME280;56841;55.964;37.674;2022-07-29T07:58:09;99660.59;;;20.87;60.73
69622;BME280;56841;55.964;37.674;2022-07-29T08:00:35;99650.81;;;20.92;61.41
69622;BME280;56841;55.964;37.674;2022-07-29T08:03:01;99652.75;;;20.85;58.86
69622;BME280;56841;55.964;37.674;2022-07-29T08:05:27;99649.72;;;20.58;58.15
69622;BME280;56841;55.964;37.674;2022-07-29T08:07:53;99648.94;;;20.93;57.97
69622;BME280;56841;55.964;37.674;2022-07-29T08:10:19;99653.22;;;21.17;58.84
69622;BME280;56841;55.964;37.674;2022-07-29T08:13:07;99647.44;;;21.49;57.52
69622;BME280;56841;55.964;37.674;2022-07-29T08:15:33;99656.63;;;21.01;59.20
69622;BME280;56841;55.964;37.674;2022-07-29T08:17:59;99648.78;;;21.11;59.84
69622;BME280;56841;55.964;37.674;2022-07-29T08:20:26;99649.50;;;20.95;59.02
69622;BME280;56841;55.964;37.674;2022-07-29T08:22:52;99656.50;;;21.08;58.41
69622;BME280;56841;55.964;37.674;2022-07-29T08:25:19;99650.28;;;21.42;57.83
69622;BME280;56841;55.964;37.674;2022-07-29T08:27:47;99645.25;;;21.46;57.59
69622;BME280;56841;55.964;37.674;2022-07-29T08:30:13;99652.28;;;21.75;57.01
69622;BME280;56841;55.964;37.674;2022-07-29T08:32:39;99647.38;;;21.72;55.41
69622;BME280;56841;55.964;37.674;2022-07-29T08:35:05;99637.38;;;21.56;53.53
69622;BME280;56841;55.964;37.674;2022-07-29T08:37:31;99639.06;;;21.34;55.27
69622;BME280;56841;55.964;37.674;2022-07-29T08:39:56;99642.34;;;21.36;55.28
69622;BME280;56841;55.964;37.674;2022-07-29T08:42:22;99641.41;;;21.30;54.64
69622;BME280;56841;55.964;37.674;2022-07-29T08:44:50;99649.03;;;21.10;55.63
69622;BME280;56841;55.964;37.674;2022-07-29T08:47:18;99648.94;;;20.93;56.35
69622;BME280;56841;55.964;37.674;2022-07-29T08:49:44;99641.91;;;20.92;56.48
69622;BME280;56841;55.964;37.674;2022-07-29T08:52:13;99641.41;;;21.30;55.83
69622;BME280;56841;55.964;37.674;2022-07-29T08:54:43;99637.03;;;21.52;53.82
69622;BME280;56841;55.964;37.674;2022-07-29T08:57:15;99632.41;;;21.76;53.18
69622;BME280;56841;55.964;37.674;2022-07-29T08:59:46;99638.72;;;21.42;52.76
69622;BME280;56841;55.964;37.674;2022-07-29T09:02:22;99638.66;;;21.53;53.43
69622;BME280;56841;55.964;37.674;2022-07-29T09:04:49;99637.19;;;21.46;53.82
69622;BME280;56841;55.964;37.674;2022-07-29T09:07:16;99641.53;;;21.75;52.49
69622;BME280;56841;55.964;37.674;2022-07-29T09:09:43;99644.25;;;21.64;51.94
69622;BME280;56841;55.964;37.674;2022-07-29T09:12:10;99647.84;;;21.69;52.16
69622;BME280;56841;55.964;37.674;2022-07-29T09:14:38;99647.03;;;21.69;52.62
69622;BME280;56841;55.964;37.674;2022-07-29T09:17:05;99642.28;;;21.59;51.95
69622;BME280;56841;55.964;37.674;2022-07-29T09:19:33;99640.47;;;21.76;52.84
69622;BME280;56841;55.964;37.674;2022-07-29T09:22:06;99640.56;;;21.82;52.16
69622;BME280;56841;55.964;37.674;2022-07-29T09:29:55;99635.53;;;22.31;51.49
69622;BME280;56841;55.964;37.674;2022-07-29T09:32:21;99642.34;;;22.21;51.40
69622;BME280;56841;55.964;37.674;2022-07-29T09:34:47;99650.16;;;22.06;51.58
69622;BME280;56841;55.964;37.674;2022-07-29T09:37:26;99643.28;;;21.98;52.59
69622;BME280;56841;55.964;37.674;2022-07-29T09:39:51;99640.09;;;21.85;53.53
69622;BME280;56841;55.964;37.674;2022-07-29T09:42:28;99649.81;;;21.74;51.45
69622;BME280;56841;55.964;37.674;2022-07-29T09:44:55;99644.97;;;21.59;51.49
69622;BME280;56841;55.964;37.674;2022-07-29T09:47:21;99645.06;;;21.93;51.32
69622;BME280;56841;55.964;37.674;2022-07-29T09:49:56;99644.25;;;22.38;51.12
69622;BME280;56841;55.964;37.674;2022-07-29T09:52:28;99649.09;;;22.07;50.71
69622;BME280;56841;55.964;37.674;2022-07-29T09:55:07;99649.75;;;22.14;50.77
69622;BME280;56841;55.964;37.674;2022-07-29T09:57:37;99635.75;;;22.63;50.58
69622;BME280;56841;55.964;37.674;2022-07-29T10:00:14;99638.19;;;22.81;48.18
69622;BME280;56841;55.964;37.674;2022-07-29T10:02:42;99647.59;;;22.96;47.95
69622;BME280;56841;55.964;37.674;2022-07-29T10:05:20;99642.63;;;22.70;49.11
69622;BME280;56841;55.964;37.674;2022-07-29T10:08:00;99652.75;;;22.63;49.78
69622;BME280;56841;55.964;37.674;2022-07-29T10:10:31;99650.78;;;22.59;48.77
69622;BME280;56841;55.964;37.674;2022-07-29T10:13:01;99645.53;;;22.69;48.16
69622;BME280;56841;55.964;37.674;2022-07-29T10:15:30;99652.22;;;22.66;47.93
69622;BME280;56841;55.964;37.674;2022-07-29T10:17:58;99645.97;;;22.44;45.98
69622;BME280;56841;55.964;37.674;2022-07-29T10:20:25;99633.66;;;22.65;46.20
69622;BME280;56841;55.964;37.674;2022-07-29T10:22:52;99638.78;;;22.66;46.14
69622;BME280;56841;55.964;37.674;2022-07-29T10:25:18;99629.56;;;22.62;46.31
69622;BME280;56841;55.964;37.674;2022-07-29T10:27:45;99639.66;;;22.89;45.60
69622;BME280;56841;55.964;37.674;2022-07-29T10:30:12;99647.91;;;22.65;45.41
69622;BME280;56841;55.964;37.674;2022-07-29T10:44:06;99635.72;;;22.80;45.43
69622;BME280;56841;55.964;37.674;2022-07-29T10:46:38;99637.44;;;23.03;45.76
69622;BME280;56841;55.964;37.674;2022-07-29T10:57:25;99629.31;;;23.41;44.81
69622;BME280;56841;55.964;37.674;2022-07-29T11:05:20;99628.44;;;23.36;42.90
69622;BME280;56841;55.964;37.674;2022-07-29T11:10:43;99633.09;;;23.89;42.74
69622;BME280;56841;55.964;37.674;2022-07-29T11:13:09;99630.53;;;23.73;43.15
69622;BME280;56841;55.964;37.674;2022-07-29T11:15:54;99634.88;;;23.79;43.73
69622;BME280;56841;55.964;37.674;2022-07-29T11:18:20;99634.19;;;23.67;43.96
69622;BME280;56841;55.964;37.674;2022-07-29T11:20:48;99639.22;;;23.36;44.08
69622;BME280;56841;55.964;37.674;2022-07-29T11:23:28;99637.41;;;23.20;43.68
69622;BME280;56841;55.964;37.674;2022-07-29T11:31:41;99632.56;;;23.00;45.09
69622;BME280;56841;55.964;37.674;2022-07-29T11:34:17;99640.56;;;22.94;45.20
69622;BME280;56841;55.964;37.674;2022-07-29T11:39:38;99635.19;;;22.78;47.30
69622;BME280;56841;55.964;37.674;2022-07-29T11:47:24;99637.22;;;23.04;46.65
69622;BME280;56841;55.964;37.674;2022-07-29T11:49:51;99643.91;;;23.02;45.88
69622;BME280;56841;55.964;37.674;2022-07-29T11:52:20;99634.94;;;22.96;46.22
69622;BME280;56841;55.964;37.674;2022-07-29T11:54:50;99643.16;;;22.89;46.46
69622;BME280;56841;55.964;37.674;2022-07-29T11:57:18;99633.81;;;23.14;45.71
69622;BME280;56841;55.964;37.674;2022-07-29T11:59:46;99623.44;;;24.26;44.29
69622;BME280;56841;55.964;37.674;2022-07-29T12:02:13;99635.22;;;25.32;41.78
69622;BME280;56841;55.964;37.674;2022-07-29T12:04:51;99627.34;;;26.44;39.80
69622;BME280;56841;55.964;37.674;2022-07-29T12:07:19;99624.84;;;26.93;38.25
69622;BME280;56841;55.964;37.674;2022-07-29T12:09:52;99619.06;;;28.54;36.62
69622;BME280;56841;55.964;37.674;2022-07-29T12:12:18;99610.81;;;28.64;35.54
69622;BME280;56841;55.964;37.674;2022-07-29T12:14:44;99616.25;;;29.36;34.42
69622;BME280;56841;55.964;37.674;2022-07-29T12:17:28;99605.16;;;29.14;34.91
69622;BME280;56841;55.964;37.674;2022-07-29T12:19:55;99602.41;;;28.90;34.90
69622;BME280;56841;55.964;37.674;2022-07-29T12:22:34;99605.03;;;29.43;34.36
69622;BME280;56841;55.964;37.674;2022-07-29T12:25:10;99600.84;;;28.25;35.79
69622;BME280;56841;55.964;37.674;2022-07-29T12:27:37;99591.03;;;27.95;35.67
69622;BME280;56841;55.964;37.674;2022-07-29T12:30:11;99608.91;;;28.30;34.85
69622;BME280;56841;55.964;37.674;2022-07-29T12:32:41;99604.94;;;28.81;34.31
69622;BME280;56841;55.964;37.674;2022-07-29T12:37:36;99588.50;;;28.91;33.39
69622;BME280;56841;55.964;37.674;2022-07-29T12:40:04;99596.38;;;27.66;34.91
69622;BME280;56841;55.964;37.674;2022-07-29T12:42:31;99597.47;;;26.95;35.73
69622;BME280;56841;55.964;37.674;2022-07-29T12:44:57;99596.75;;;27.94;34.59
69622;BME280;56841;55.964;37.674;2022-07-29T12:47:25;99597.19;;;28.40;34.49
69622;BME280;56841;55.964;37.674;2022-07-29T12:50:15;99594.13;;;27.83;35.37
69622;BME280;56841;55.964;37.674;2022-07-29T12:52:44;99599.63;;;27.63;36.27
69622;BME280;56841;55.964;37.674;2022-07-29T12:55:11;99592.00;;;28.97;34.63
69622;BME280;56841;55.964;37.674;2022-07-29T12:57:47;99591.81;;;29.55;33.08
69622;BME280;56841;55.964;37.674;2022-07-29T13:00:15;99586.00;;;30.32;33.14
69622;BME280;56841;55.964;37.674;2022-07-29T13:02:42;99589.22;;;30.20;32.15
69622;BME280;56841;55.964;37.674;2022-07-29T13:05:10;99587.81;;;29.71;32.78
69622;BME280;56841;55.964;37.674;2022-07-29T13:07:37;99602.03;;;29.44;33.21
69622;BME280;56841;55.964;37.674;2022-07-29T13:10:14;99591.03;;;29.12;33.57
69622;BME280;56841;55.964;37.674;2022-07-29T13:13:12;99589.78;;;29.66;33.05
69622;BME280;56841;55.964;37.674;2022-07-29T13:15:44;99581.19;;;28.39;34.62
69622;BME280;56841;55.964;37.674;2022-07-29T13:18:34;99593.00;;;29.06;34.25
69622;BME280;56841;55.964;37.674;2022-07-29T13:21:11;99592.44;;;29.28;34.36
69622;BME280;56841;55.964;37.674;2022-07-29T13:23:37;99589.25;;;29.83;32.73
69622;BME280;56841;55.964;37.674;2022-07-29T13:26:10;99589.41;;;30.57;31.40
69622;BME280;56841;55.964;37.674;2022-07-29T13:28:37;99585.03;;;30.42;31.74
69622;BME280;56841;55.964;37.674;2022-07-29T13:31:03;99592.31;;;30.47;31.30
69622;BME280;56841;55.964;37.674;2022-07-29T13:33:30;99593.38;;;31.20;30.41
69622;BME280;56841;55.964;37.674;2022-07-29T13:35:56;99586.63;;;31.67;29.89
69622;BME280;56841;55.964;37.674;2022-07-29T13:38:22;99591.13;;;31.49;29.84
69622;BME280;56841;55.964;37.674;2022-07-29T13:40:47;99583.84;;;30.62;31.20
69622;BME280;56841;55.964;37.674;2022-07-29T13:43:13;99582.84;;;29.92;32.24
69622;BME280;56841;55.964;37.674;2022-07-29T13:45:39;99588.94;;;27.87;35.68
69622;BME280;56841;55.964;37.674;2022-07-29T13:48:05;99598.47;;;28.14;35.43
69622;BME280;56841;55.964;37.674;2022-07-29T13:50:32;99592.41;;;29.52;32.66